Port Lavaca, TX

7:31 PM CDT on September 01, 2015 (GMT -0500)
Rabe House | | Change Station
CLOSE
Current Station
Personal Weather Station
Location: Port OConnor, TX
Elevation: 20 ft
Nearby Weather Stations

Elev 20 ft 28.44 °N, 96.42 °W | Updated 22 seconds ago

Partly Cloudy
Partly Cloudy
90.3 °F
Feels Like 110 °F
N
8.7
Wind Variable Wind from SE
Gusts 9.8 mph

Today
High -- | Low -- °F
--% Chance of Precip.
Yesterday
High -- | Low -- °F
Precip. -- in
7:03 AM 7:47 PM
Waning Gibbous, 85% visible
Pressure 29.99 in
Visibility 10.0 miles
Clouds Scattered Clouds 100 ft
Scattered Clouds 1300 ft
Heat Index 110 °F
Dew Point 81 °F
Humidity 75%
Rainfall 1.24 in
Snow Depth Not available.
UV 3 out of 12
Pollen 5.40 out of 12
Air Quality Not available.
Flu Activity Not available.
METAR KPKV 012215Z AUTO 10015G19KT 10SM SCT001 SCT013 28/23 A2999 RMK AO2 T02800228
Pressure 29.99 in
Visibility 10.0 miles
Clouds Scattered Clouds 100 ft
Scattered Clouds 1300 ft
Heat Index 110 °F
Dew Point 81 °F
Humidity 75%
Rainfall 1.24 in
Snow Depth Not available.
UV 3 out of 12
Pollen 5.40 out of 12
Air Quality Not available.
Flu Activity Not available.
METAR KPKV 012215Z AUTO 10015G19KT 10SM SCT001 SCT013 28/23 A2999 RMK AO2 T02800228
Nowcast | as of 5:45 PM CDT on September 1, 2015

Through 8 PM CDT...scattered showers and isolated thunderstorms will continue to affect portions of south Texas and the middle Texas coastal waters. Rainfall should generally be moderate to heavy with rainfall amounts ranging from a quarter to a half an inch. However...isolated higher rainfall amounts will be possible with any thunderstorm that occur...as well as brief gusty winds and cloud to surface lightning.

×

10-Day Weather Forecast

×

Almanac

Astronomy

Sep. 01, 2015 Rise Set
Actual Time
Civil Twilight
Nautical Twilight
Astronomical Twilight
Moon
Length of Visible Light
Length of Day
Tomorrow will be .
, % of the Moon is Illuminated

Today's Extremes

State Highs State Lows

Community

WunderPhotos

Upload Photos

1,851,657 photos uploaded!

WunderBlogs® & News

Nearby

Air Quality

  Air Quality AQ Index Pollutant
Not available.

Snow Depth

Station Depth Elevation

Earthquake Activity

City Distance Mag. Time & Date
Minimum magnitude displayed is 2.5.

Coastal Water Temperatures

Place Temperature

Stations

Nearby Weather Stations

Station Location Temp. Windchill Dew Point Humidity Wind Precip. Elev Updated Type